Time;durP1;ratioP1;P1;durP2;ratioP2;P2;SDS_P1;SDS_P2;PMS_P1;PMS_P2;Temp;Humidity;BMP_temperature;BMP_pressure;BME280_temperature;BME280_humidity;BME280_pressure;Samples;Min_cycle;Max_cycle;Signal;HPM_P1;HPM_P2
2022/03/11 00:02:03;;;;;;;9.77;5.40;;;;;;;;;;4995796;28;20153;-78
2022/03/11 00:04:29;;;;;;;9.07;5.53;;;;;;;;;;4974263;28;20026;-78
2022/03/11 00:06:54;;;;;;;12.48;6.22;;;;;;;;;;4975144;28;20119;-79
2022/03/11 00:09:19;;;;;;;11.20;5.78;;;;;;;;;;4973395;28;20115;-79
2022/03/11 00:11:45;;;;;;;12.35;6.13;;;;;;;;;;4996630;28;20050;-79
2022/03/11 00:14:10;;;;;;;8.45;5.13;;;;;;;;;;4971873;28;20033;-79
2022/03/11 00:16:36;;;;;;;10.15;5.75;;;;;;;;;;4973831;28;20100;-79
2022/03/11 00:19:01;;;;;;;13.57;7.18;;;;;;;;;;4973157;28;20023;-79
2022/03/11 00:21:26;;;;;;;11.95;6.70;;;;;;;;;;4973293;28;20023;-79
2022/03/11 00:23:52;;;;;;;12.82;7.15;;;;;;;;;;4973144;28;20536;-78
2022/03/11 00:26:17;;;;;;;16.27;7.32;;;;;;;;;;4971944;28;20026;-79
2022/03/11 00:28:42;;;;;;;12.15;6.35;;;;;;;;;;4975526;28;20019;-79
2022/03/11 00:31:08;;;;;;;13.75;6.88;;;;;;;;;;4976587;28;20062;-79
2022/03/11 00:33:34;;;;;;;13.10;6.60;;;;;;;;;;4976274;28;20065;-78
2022/03/11 00:35:59;;;;;;;12.65;7.07;;;;;;;;;;4976453;28;20022;-78
2022/03/11 00:38:25;;;;;;;12.57;7.05;;;;;;;;;;4977108;28;20110;-79
2022/03/11 00:40:55;;;;;;;12.48;7.20;;;;;;;;;;4976596;28;20030;-79
2022/03/11 00:43:21;;;;;;;14.55;7.30;;;;;;;;;;4984653;28;20508;-79
2022/03/11 00:45:47;;;;;;;14.93;7.00;;;;;;;;;;4990882;28;20026;-79
2022/03/11 00:48:12;;;;;;;14.05;7.43;;;;;;;;;;4993181;28;20031;-79
2022/03/11 00:50:37;;;;;;;15.80;8.00;;;;;;;;;;4977425;28;20034;-78
2022/03/11 00:53:03;;;;;;;12.55;6.68;;;;;;;;;;4988890;28;20027;-78
2022/03/11 00:55:28;;;;;;;13.95;7.93;;;;;;;;;;4991191;28;20058;-79
2022/03/11 00:57:54;;;;;;;9.90;6.40;;;;;;;;;;4974631;28;20027;-79
2022/03/11 01:00:19;;;;;;;15.68;8.55;;;;;;;;;;4976213;28;20035;-79
2022/03/11 01:02:45;;;;;;;11.73;6.93;;;;;;;;;;4976146;28;20090;-79
2022/03/11 01:05:10;;;;;;;15.73;8.70;;;;;;;;;;4990474;28;20070;-78
2022/03/11 01:07:36;;;;;;;14.02;7.10;;;;;;;;;;4975936;28;20034;-78
2022/03/11 01:10:03;;;;;;;13.48;6.70;;;;;;;;;;4975338;28;20050;-78
2022/03/11 01:12:28;;;;;;;15.65;8.02;;;;;;;;;;4979228;28;20080;-79
2022/03/11 01:14:54;;;;;;;14.20;7.93;;;;;;;;;;4981208;28;20097;-79
2022/03/11 01:17:19;;;;;;;14.00;8.02;;;;;;;;;;4978541;28;20026;-79
2022/03/11 01:19:44;;;;;;;14.32;8.18;;;;;;;;;;4976053;28;20050;-79
2022/03/11 01:22:10;;;;;;;12.23;7.72;;;;;;;;;;4977219;28;20449;-79
2022/03/11 01:24:35;;;;;;;14.52;8.00;;;;;;;;;;4981154;28;20030;-80
2022/03/11 01:27:01;;;;;;;15.73;7.85;;;;;;;;;;4988510;28;20433;-79
2022/03/11 01:29:27;;;;;;;14.07;7.90;;;;;;;;;;4978314;28;20030;-80
2022/03/11 01:31:52;;;;;;;12.68;8.07;;;;;;;;;;4977982;28;20029;-79
2022/03/11 01:34:19;;;;;;;12.98;7.57;;;;;;;;;;4976383;28;20035;-80
2022/03/11 01:36:45;;;;;;;14.35;8.10;;;;;;;;;;4975020;28;20052;-81
2022/03/11 01:39:10;;;;;;;14.95;7.95;;;;;;;;;;4977888;28;20031;-80
2022/03/11 01:41:36;;;;;;;15.07;8.35;;;;;;;;;;5010685;28;20480;-80
2022/03/11 01:44:06;;;;;;;14.10;8.35;;;;;;;;;;4985571;28;20027;-80
2022/03/11 01:46:32;;;;;;;14.40;8.45;;;;;;;;;;4994807;28;20033;-79
2022/03/11 01:49:00;;;;;;;15.38;8.45;;;;;;;;;;4972835;28;20046;-80
2022/03/11 01:51:27;;;;;;;13.70;7.32;;;;;;;;;;4974057;28;20023;-78
2022/03/11 01:53:53;;;;;;;18.35;8.88;;;;;;;;;;4978224;28;20046;-78
2022/03/11 01:56:20;;;;;;;14.90;8.93;;;;;;;;;;4979959;28;20033;-79
2022/03/11 01:58:50;;;;;;;15.85;9.02;;;;;;;;;;4980783;28;20027;-79
2022/03/11 02:01:16;;;;;;;16.98;8.93;;;;;;;;;;4990532;28;20401;-79
2022/03/11 02:03:42;;;;;;;17.73;8.75;;;;;;;;;;4975435;28;20544;-79
2022/03/11 02:06:08;;;;;;;14.52;8.07;;;;;;;;;;4976312;28;20141;-79
2022/03/11 02:08:35;;;;;;;15.57;9.35;;;;;;;;;;4975341;28;20102;-79
2022/03/11 02:11:01;;;;;;;15.65;8.43;;;;;;;;;;4976994;28;20023;-79
2022/03/11 02:13:26;;;;;;;13.70;8.30;;;;;;;;;;4986890;28;20030;-79
2022/03/11 02:15:52;;;;;;;19.25;9.45;;;;;;;;;;4979987;28;20026;-79
2022/03/11 02:18:17;;;;;;;17.00;9.45;;;;;;;;;;4976815;28;20417;-79
2022/03/11 02:20:46;;;;;;;16.98;8.93;;;;;;;;;;4975848;28;20053;-79
2022/03/11 02:23:13;;;;;;;16.38;8.68;;;;;;;;;;4975009;28;20030;-80
2022/03/11 02:25:41;;;;;;;17.48;9.13;;;;;;;;;;4987865;28;20054;-80
2022/03/11 02:28:06;;;;;;;18.88;9.10;;;;;;;;;;4988011;28;20030;-80
2022/03/11 02:30:31;;;;;;;17.15;9.85;;;;;;;;;;4988325;28;20715;-80
2022/03/11 02:32:57;;;;;;;16.35;8.73;;;;;;;;;;4979468;28;20070;-79
2022/03/11 02:35:22;;;;;;;19.92;9.77;;;;;;;;;;4995362;28;20571;-80
2022/03/11 02:37:47;;;;;;;20.63;10.48;;;;;;;;;;4979811;28;20041;-80
2022/03/11 02:40:13;;;;;;;21.63;10.15;;;;;;;;;;4977821;28;20030;-80
2022/03/11 02:42:38;;;;;;;21.08;10.90;;;;;;;;;;4988314;28;20033;-80
2022/03/11 02:45:05;;;;;;;19.08;10.32;;;;;;;;;;4995058;28;20030;-80
2022/03/11 02:47:30;;;;;;;20.63;11.02;;;;;;;;;;4981447;28;20037;-79
2022/03/11 02:49:56;;;;;;;16.67;10.52;;;;;;;;;;4979803;28;20398;-80
2022/03/11 02:52:21;;;;;;;19.33;10.85;;;;;;;;;;4978922;28;20018;-80
2022/03/11 02:54:48;;;;;;;20.85;11.15;;;;;;;;;;4985435;28;20026;-80
2022/03/11 02:57:17;;;;;;;21.55;11.00;;;;;;;;;;4990219;28;20033;-80
2022/03/11 02:59:46;;;;;;;17.95;10.30;;;;;;;;;;4988294;28;20062;-80
2022/03/11 03:02:12;;;;;;;21.25;9.82;;;;;;;;;;4979210;28;20042;-79
2022/03/11 03:04:38;;;;;;;18.70;10.70;;;;;;;;;;4995085;28;20027;-80
2022/03/11 03:07:03;;;;;;;22.58;10.90;;;;;;;;;;4979823;28;20103;-80
2022/03/11 03:09:29;;;;;;;23.67;11.65;;;;;;;;;;4979375;28;20105;-80
2022/03/11 03:11:54;;;;;;;22.08;12.60;;;;;;;;;;4977058;28;20035;-81
2022/03/11 03:14:20;;;;;;;21.58;10.82;;;;;;;;;;4978417;28;20113;-79
2022/03/11 03:16:45;;;;;;;19.67;11.23;;;;;;;;;;4985152;28;20030;-79
2022/03/11 03:19:11;;;;;;;21.40;10.68;;;;;;;;;;4988699;28;20409;-80
2022/03/11 03:21:36;;;;;;;19.90;10.82;;;;;;;;;;4978005;28;20409;-79
2022/03/11 03:24:02;;;;;;;24.73;10.88;;;;;;;;;;4978076;28;20401;-80
2022/03/11 03:26:27;;;;;;;23.25;12.07;;;;;;;;;;4985481;28;20093;-80
2022/03/11 03:28:52;;;;;;;15.27;9.20;;;;;;;;;;4978216;28;20397;-80
2022/03/11 03:31:19;;;;;;;19.73;10.65;;;;;;;;;;4978335;28;20034;-79
2022/03/11 03:33:45;;;;;;;22.95;11.05;;;;;;;;;;4976906;28;20401;-80
2022/03/11 03:36:10;;;;;;;21.30;11.27;;;;;;;;;;4978138;28;20038;-79
2022/03/11 03:38:35;;;;;;;19.77;10.85;;;;;;;;;;4977701;28;20477;-80
2022/03/11 03:41:01;;;;;;;21.27;11.18;;;;;;;;;;4977414;28;20113;-79
2022/03/11 03:43:26;;;;;;;19.13;10.23;;;;;;;;;;4977362;28;20440;-79
2022/03/11 03:45:51;;;;;;;19.15;11.20;;;;;;;;;;4994367;28;20026;-80
2022/03/11 03:48:17;;;;;;;19.25;11.32;;;;;;;;;;4986811;28;20537;-79
2022/03/11 03:50:42;;;;;;;19.67;11.50;;;;;;;;;;4984043;28;20106;-80
2022/03/11 03:53:07;;;;;;;20.52;10.13;;;;;;;;;;4977721;28;20117;-79
2022/03/11 03:55:33;;;;;;;22.90;11.57;;;;;;;;;;4983417;28;20109;-79
2022/03/11 03:57:58;;;;;;;21.73;11.23;;;;;;;;;;4974972;28;20127;-80
2022/03/11 04:00:24;;;;;;;24.83;11.95;;;;;;;;;;4968753;28;20027;-79
2022/03/11 04:02:51;;;;;;;20.02;10.55;;;;;;;;;;4966273;28;20355;-80
2022/03/11 04:05:17;;;;;;;21.83;10.82;;;;;;;;;;4971629;28;20045;-79
2022/03/11 04:07:44;;;;;;;18.75;10.45;;;;;;;;;;4977231;28;20485;-79
2022/03/11 04:10:11;;;;;;;22.90;10.90;;;;;;;;;;4978743;28;20137;-80
2022/03/11 04:12:37;;;;;;;24.60;11.50;;;;;;;;;;4984323;28;20026;-79
2022/03/11 04:15:04;;;;;;;19.15;10.63;;;;;;;;;;4991226;28;20042;-80
2022/03/11 04:17:29;;;;;;;15.82;10.00;;;;;;;;;;4997539;28;20031;-78
2022/03/11 04:19:55;;;;;;;20.02;10.95;;;;;;;;;;4977995;28;20034;-80
2022/03/11 04:22:20;;;;;;;20.45;10.15;;;;;;;;;;4977962;28;20369;-79
2022/03/11 04:24:46;;;;;;;18.27;9.55;;;;;;;;;;4983345;28;20064;-80
2022/03/11 04:27:12;;;;;;;17.50;9.93;;;;;;;;;;4978680;28;20034;-79
2022/03/11 04:29:37;;;;;;;20.80;11.30;;;;;;;;;;4993115;28;20038;-79
2022/03/11 04:32:03;;;;;;;18.83;10.50;;;;;;;;;;4977512;28;20034;-80
2022/03/11 04:34:29;;;;;;;19.38;9.48;;;;;;;;;;4974330;28;20119;-80
2022/03/11 04:36:56;;;;;;;16.73;10.05;;;;;;;;;;4989983;28;20058;-79
2022/03/11 04:39:23;;;;;;;17.33;8.88;;;;;;;;;;4979371;28;20027;-79
2022/03/11 04:41:49;;;;;;;16.17;8.02;;;;;;;;;;4989171;28;20061;-80
2022/03/11 04:44:14;;;;;;;17.85;9.52;;;;;;;;;;4994250;28;20117;-80
2022/03/11 04:46:40;;;;;;;19.83;9.43;;;;;;;;;;4996581;28;20037;-79
2022/03/11 04:49:06;;;;;;;17.10;9.50;;;;;;;;;;4983542;28;20038;-79
2022/03/11 04:51:31;;;;;;;19.98;9.68;;;;;;;;;;4978403;28;20033;-79
2022/03/11 04:53:58;;;;;;;24.10;10.20;;;;;;;;;;4991727;28;20026;-79
2022/03/11 04:56:24;;;;;;;13.48;8.85;;;;;;;;;;4988042;28;20275;-79
2022/03/11 04:58:49;;;;;;;16.30;9.52;;;;;;;;;;5010695;28;20041;-79
2022/03/11 05:01:15;;;;;;;18.00;9.23;;;;;;;;;;4995698;28;20038;-79
2022/03/11 05:03:40;;;;;;;16.58;9.30;;;;;;;;;;4995861;28;20030;-80
2022/03/11 05:06:06;;;;;;;17.55;8.43;;;;;;;;;;4995719;28;20543;-79
2022/03/11 05:08:31;;;;;;;18.52;9.57;;;;;;;;;;4995570;28;20243;-79
2022/03/11 05:10:56;;;;;;;15.13;9.07;;;;;;;;;;4995644;28;20037;-79
2022/03/11 05:13:22;;;;;;;17.83;8.90;;;;;;;;;;4995744;28;20113;-79
2022/03/11 05:15:47;;;;;;;17.85;8.75;;;;;;;;;;5001419;28;20062;-80
2022/03/11 05:18:12;;;;;;;18.42;9.52;;;;;;;;;;4976121;28;20094;-79
2022/03/11 05:20:38;;;;;;;15.02;8.18;;;;;;;;;;4980748;28;20066;-79
2022/03/11 05:23:04;;;;;;;17.08;8.88;;;;;;;;;;4993781;28;20027;-79
2022/03/11 05:25:30;;;;;;;18.63;9.23;;;;;;;;;;4974451;28;20034;-79
2022/03/11 05:27:55;;;;;;;17.33;7.95;;;;;;;;;;4978896;28;20027;-79
2022/03/11 05:30:20;;;;;;;15.00;8.43;;;;;;;;;;4980124;28;20061;-78
2022/03/11 05:32:47;;;;;;;11.98;5.88;;;;;;;;;;4978880;28;20054;-79
2022/03/11 05:35:14;;;;;;;16.40;8.60;;;;;;;;;;4979566;28;20397;-79
2022/03/11 05:37:39;;;;;;;19.80;9.45;;;;;;;;;;4977994;28;20057;-79
2022/03/11 05:40:06;;;;;;;12.98;6.75;;;;;;;;;;4976890;28;20490;-79
2022/03/11 05:42:31;;;;;;;15.32;7.95;;;;;;;;;;4981346;28;20057;-80
2022/03/11 05:44:57;;;;;;;13.43;7.30;;;;;;;;;;4979492;28;20533;-79
2022/03/11 05:47:22;;;;;;;13.95;7.53;;;;;;;;;;4975777;28;20046;-80
2022/03/11 05:49:48;;;;;;;20.70;9.20;;;;;;;;;;4977092;28;20039;-80
2022/03/11 05:52:13;;;;;;;16.35;9.02;;;;;;;;;;4976779;28;20109;-79
2022/03/11 05:54:39;;;;;;;16.98;7.85;;;;;;;;;;5004997;28;20023;-80
2022/03/11 05:57:04;;;;;;;13.25;7.57;;;;;;;;;;4982099;28;20036;-79
2022/03/11 05:59:29;;;;;;;15.73;6.80;;;;;;;;;;4982265;28;20074;-79
2022/03/11 06:01:55;;;;;;;14.93;7.32;;;;;;;;;;4981895;28;20545;-79
2022/03/11 06:04:21;;;;;;;12.80;6.85;;;;;;;;;;4978102;28;20445;-79
2022/03/11 06:06:47;;;;;;;14.48;6.97;;;;;;;;;;4981545;28;20027;-80
2022/03/11 06:09:12;;;;;;;12.77;6.88;;;;;;;;;;4981451;28;20058;-79
2022/03/11 06:11:38;;;;;;;12.93;7.22;;;;;;;;;;5002682;28;20086;-80
2022/03/11 06:14:03;;;;;;;11.40;6.38;;;;;;;;;;4985145;28;20023;-80
2022/03/11 06:16:29;;;;;;;14.02;6.93;;;;;;;;;;4996290;28;20030;-79
2022/03/11 06:18:54;;;;;;;10.82;6.00;;;;;;;;;;4989659;28;20031;-80
2022/03/11 06:21:19;;;;;;;12.02;6.38;;;;;;;;;;4982795;28;20037;-80
2022/03/11 06:23:45;;;;;;;12.25;5.88;;;;;;;;;;4980743;28;20042;-80
2022/03/11 06:26:10;;;;;;;12.50;5.93;;;;;;;;;;4987295;28;20037;-79
2022/03/11 06:28:36;;;;;;;11.35;6.40;;;;;;;;;;4982670;28;20505;-79
2022/03/11 06:31:02;;;;;;;13.70;5.68;;;;;;;;;;4980470;28;20035;-79
2022/03/11 06:33:27;;;;;;;12.55;6.40;;;;;;;;;;4983158;28;20030;-84
2022/03/11 06:35:52;;;;;;;13.60;6.10;;;;;;;;;;4990315;28;20023;-81
2022/03/11 06:38:18;;;;;;;10.48;6.03;;;;;;;;;;4979301;28;20037;-79
2022/03/11 06:40:43;;;;;;;12.20;5.72;;;;;;;;;;4977135;28;20026;-80
2022/03/11 06:43:09;;;;;;;13.45;6.13;;;;;;;;;;4993604;28;20050;-80
2022/03/11 06:45:35;;;;;;;11.20;6.18;;;;;;;;;;4996045;28;20050;-79
2022/03/11 06:48:00;;;;;;;14.38;5.97;;;;;;;;;;4995142;28;20079;-79
2022/03/11 06:50:26;;;;;;;13.13;6.22;;;;;;;;;;4999933;28;20193;-82
2022/03/11 06:52:52;;;;;;;8.95;5.25;;;;;;;;;;5000227;28;20026;-80
2022/03/11 06:55:22;;;;;;;9.88;5.43;;;;;;;;;;4999907;28;20046;-90
2022/03/11 06:57:59;;;;;;;;;;;;;;;;;;;;;
2022/03/11 07:01:33;;;;;;;11.27;6.03;;;;;;;;;;4996475;28;20038;-87
2022/03/11 07:11:08;;;;;;;11.55;6.78;;;;;;;;;;4979347;28;20041;-87
2022/03/11 07:14:45;;;;;;;;;;;;;;;;;;;;;
2022/03/11 07:17:11;;;;;;;10.57;5.95;;;;;;;;;;4954135;28;20110;-82
2022/03/11 07:19:36;;;;;;;13.15;6.47;;;;;;;;;;4986777;28;20453;-82
2022/03/11 07:22:04;;;;;;;10.18;6.05;;;;;;;;;;4979678;28;20032;-82
2022/03/11 07:24:30;;;;;;;8.93;6.43;;;;;;;;;;4983934;28;20034;-81
2022/03/11 07:26:55;;;;;;;13.23;5.88;;;;;;;;;;4991718;28;20389;-83
2022/03/11 07:29:20;;;;;;;8.80;5.60;;;;;;;;;;4979311;28;20155;-80
2022/03/11 07:31:46;;;;;;;12.70;6.18;;;;;;;;;;4979994;28;20026;-80
2022/03/11 07:34:11;;;;;;;9.88;5.40;;;;;;;;;;4979292;28;20150;-79
2022/03/11 07:36:37;;;;;;;9.98;5.90;;;;;;;;;;4981867;28;20077;-79
2022/03/11 07:39:05;;;;;;;9.77;5.75;;;;;;;;;;4981244;28;20038;-81
2022/03/11 07:41:31;;;;;;;9.30;5.90;;;;;;;;;;4980210;28;20037;-81
2022/03/11 07:43:56;;;;;;;9.82;5.60;;;;;;;;;;4987298;28;20580;-81
2022/03/11 07:46:23;;;;;;;15.10;5.40;;;;;;;;;;5003764;28;20035;-83
2022/03/11 07:48:51;;;;;;;8.40;5.68;;;;;;;;;;4978660;28;20156;-81
2022/03/11 07:51:18;;;;;;;11.55;5.85;;;;;;;;;;4980284;28;20019;-81
2022/03/11 07:53:44;;;;;;;11.20;6.18;;;;;;;;;;4980122;28;20145;-81
2022/03/11 07:56:13;;;;;;;10.95;5.72;;;;;;;;;;4978404;28;20030;-81
2022/03/11 07:58:39;;;;;;;8.95;5.85;;;;;;;;;;4979828;28;20054;-80
2022/03/11 08:01:07;;;;;;;12.02;6.60;;;;;;;;;;4979895;28;20023;-80
2022/03/11 08:03:33;;;;;;;10.18;6.20;;;;;;;;;;4979590;28;20099;-79
2022/03/11 08:05:59;;;;;;;12.98;6.55;;;;;;;;;;4960151;28;20023;-80
2022/03/11 08:08:24;;;;;;;13.82;6.32;;;;;;;;;;4960434;29;20506;-81
2022/03/11 08:10:50;;;;;;;14.02;6.13;;;;;;;;;;4977522;28;20029;-81
2022/03/11 08:13:15;;;;;;;10.80;6.45;;;;;;;;;;4982095;28;20033;-80
2022/03/11 08:15:40;;;;;;;14.02;5.95;;;;;;;;;;5002760;28;20029;-81
2022/03/11 08:18:06;;;;;;;12.15;6.15;;;;;;;;;;4980481;28;20477;-80
2022/03/11 08:20:31;;;;;;;10.07;5.30;;;;;;;;;;4990891;28;20046;-81
2022/03/11 08:22:57;;;;;;;11.07;5.95;;;;;;;;;;4958395;28;20023;-81
2022/03/11 08:25:26;;;;;;;10.43;6.07;;;;;;;;;;4975239;28;20042;-80
2022/03/11 08:27:54;;;;;;;12.25;6.10;;;;;;;;;;4978395;28;20440;-81
2022/03/11 08:30:19;;;;;;;12.55;6.35;;;;;;;;;;4976650;28;20482;-81
2022/03/11 08:32:45;;;;;;;10.18;6.35;;;;;;;;;;4978179;28;20047;-80
2022/03/11 08:35:11;;;;;;;12.80;6.45;;;;;;;;;;4978200;28;20033;-81
2022/03/11 08:37:36;;;;;;;11.80;6.63;;;;;;;;;;4977894;28;20094;-81
2022/03/11 08:40:07;;;;;;;11.05;6.45;;;;;;;;;;4976928;28;20046;-81
2022/03/11 08:42:36;;;;;;;11.02;6.35;;;;;;;;;;4976214;28;20015;-81
2022/03/11 08:45:06;;;;;;;9.07;6.15;;;;;;;;;;4985642;28;20034;-81
2022/03/11 08:47:31;;;;;;;12.43;6.30;;;;;;;;;;4992348;28;20037;-80
2022/03/11 08:49:57;;;;;;;9.00;5.75;;;;;;;;;;4996350;28;20023;-82
2022/03/11 08:52:24;;;;;;;11.60;6.55;;;;;;;;;;4999032;28;20403;-81
2022/03/11 08:54:50;;;;;;;10.40;6.18;;;;;;;;;;5004191;28;20043;-81
2022/03/11 08:57:15;;;;;;;14.15;6.45;;;;;;;;;;4979050;28;20037;-80
2022/03/11 08:59:40;;;;;;;9.88;6.13;;;;;;;;;;4978844;28;20113;-81
2022/03/11 09:02:07;;;;;;;10.75;6.20;;;;;;;;;;4970574;28;20027;-80
2022/03/11 09:04:33;;;;;;;9.32;5.82;;;;;;;;;;4979328;28;20034;-79
2022/03/11 09:06:59;;;;;;;13.63;6.28;;;;;;;;;;4978422;28;20072;-81
2022/03/11 09:09:24;;;;;;;9.07;5.78;;;;;;;;;;4978212;28;20125;-81
2022/03/11 09:11:50;;;;;;;11.43;6.07;;;;;;;;;;4978656;28;20037;-81
2022/03/11 09:14:15;;;;;;;20.45;6.30;;;;;;;;;;4978650;28;20464;-80
2022/03/11 09:16:40;;;;;;;11.35;6.40;;;;;;;;;;4986922;28;20026;-80
2022/03/11 09:19:06;;;;;;;11.80;5.97;;;;;;;;;;4983971;28;20030;-80
2022/03/11 09:21:31;;;;;;;15.27;7.68;;;;;;;;;;4976307;28;20023;-80
2022/03/11 09:23:57;;;;;;;11.63;6.60;;;;;;;;;;4975152;28;20030;-80
2022/03/11 09:26:22;;;;;;;11.40;6.22;;;;;;;;;;4987759;28;20026;-80
2022/03/11 09:28:48;;;;;;;11.63;7.10;;;;;;;;;;4995654;28;20477;-81
2022/03/11 09:31:14;;;;;;;9.65;5.95;;;;;;;;;;4958666;29;20494;-81
2022/03/11 09:33:40;;;;;;;10.07;6.15;;;;;;;;;;4962651;28;20036;-81
2022/03/11 09:36:07;;;;;;;14.40;7.15;;;;;;;;;;4979467;28;20023;-81
2022/03/11 09:38:32;;;;;;;11.30;5.88;;;;;;;;;;4979213;28;20030;-81
2022/03/11 09:40:59;;;;;;;12.48;7.03;;;;;;;;;;4982893;28;20537;-82
2022/03/11 09:43:26;;;;;;;13.40;5.93;;;;;;;;;;4984146;28;20162;-81
2022/03/11 09:45:52;;;;;;;11.45;6.25;;;;;;;;;;4983152;28;20023;-80
2022/03/11 09:48:19;;;;;;;10.30;5.47;;;;;;;;;;4976530;28;20050;-80
2022/03/11 09:50:44;;;;;;;15.80;6.20;;;;;;;;;;4978980;28;20022;-81
2022/03/11 09:53:11;;;;;;;12.43;6.20;;;;;;;;;;4979093;28;20023;-81
2022/03/11 09:55:38;;;;;;;11.20;6.15;;;;;;;;;;4983587;28;20018;-80
2022/03/11 09:58:04;;;;;;;13.65;6.05;;;;;;;;;;4990932;28;20030;-81
2022/03/11 10:00:29;;;;;;;10.65;5.68;;;;;;;;;;4977741;28;20031;-81
2022/03/11 10:02:55;;;;;;;8.90;5.60;;;;;;;;;;4992982;28;20042;-81
2022/03/11 10:05:21;;;;;;;10.40;5.72;;;;;;;;;;4977400;28;20038;-81
2022/03/11 10:07:59;;;;;;;10.10;5.88;;;;;;;;;;4978064;28;20118;-81
2022/03/11 10:10:25;;;;;;;8.32;5.32;;;;;;;;;;4975811;28;20047;-80
2022/03/11 10:12:51;;;;;;;7.80;4.93;;;;;;;;;;4990096;28;20029;-79
2022/03/11 10:15:22;;;;;;;9.48;5.63;;;;;;;;;;4982043;28;20035;-80
2022/03/11 10:17:47;;;;;;;10.88;5.50;;;;;;;;;;4975577;28;20540;-82
2022/03/11 10:20:16;;;;;;;13.30;6.00;;;;;;;;;;4973640;28;20094;-80
2022/03/11 10:22:44;;;;;;;12.30;5.82;;;;;;;;;;4973586;28;20128;-81
2022/03/11 10:25:17;;;;;;;9.43;4.75;;;;;;;;;;4968597;28;20031;-80
2022/03/11 10:27:55;;;;;;;11.98;5.68;;;;;;;;;;4976866;28;20061;-80
2022/03/11 10:30:22;;;;;;;9.10;5.15;;;;;;;;;;4976206;28;20019;-80
2022/03/11 10:32:55;;;;;;;11.93;5.65;;;;;;;;;;4975529;28;20019;-80
2022/03/11 10:35:34;;;;;;;10.52;5.75;;;;;;;;;;4974416;28;20041;-80
2022/03/11 10:38:03;;;;;;;11.95;6.25;;;;;;;;;;4974228;28;20101;-81
2022/03/11 10:40:32;;;;;;;11.57;5.78;;;;;;;;;;4971695;28;20015;-80
2022/03/11 10:43:28;;;;;;;24.27;6.20;;;;;;;;;;4971994;28;20030;-80
2022/03/11 10:45:57;;;;;;;7.85;5.03;;;;;;;;;;4972943;28;20038;-79
2022/03/11 10:48:48;;;;;;;11.10;5.55;;;;;;;;;;4979793;28;20027;-79
2022/03/11 10:51:34;;;;;;;9.82;5.68;;;;;;;;;;5005428;28;20027;-79
2022/03/11 10:54:05;;;;;;;13.80;5.65;;;;;;;;;;4982885;28;20146;-79
2022/03/11 10:56:35;;;;;;;9.35;5.43;;;;;;;;;;4996227;28;20082;-79
2022/03/11 10:59:11;;;;;;;13.38;6.13;;;;;;;;;;4996106;28;20018;-80
2022/03/11 11:01:39;;;;;;;11.20;6.18;;;;;;;;;;4993426;28;20046;-81
2022/03/11 11:04:07;;;;;;;10.98;6.05;;;;;;;;;;4977597;28;20031;-81
2022/03/11 11:06:33;;;;;;;12.98;6.03;;;;;;;;;;4978489;28;20026;-80
2022/03/11 11:08:59;;;;;;;13.10;6.30;;;;;;;;;;4980792;28;20046;-81
2022/03/11 11:11:25;;;;;;;11.25;5.70;;;;;;;;;;4981360;28;20093;-81
2022/03/11 11:13:51;;;;;;;13.57;6.28;;;;;;;;;;4988814;28;20022;-80
2022/03/11 11:16:23;;;;;;;24.63;5.97;;;;;;;;;;4984728;28;20030;-80
2022/03/11 11:18:51;;;;;;;10.25;6.32;;;;;;;;;;4979631;28;20054;-81
2022/03/11 11:21:24;;;;;;;12.85;5.95;;;;;;;;;;4980571;28;20041;-80
2022/03/11 11:23:57;;;;;;;13.20;6.47;;;;;;;;;;4980707;28;20504;-81
2022/03/11 11:26:24;;;;;;;11.85;6.10;;;;;;;;;;4984279;28;20022;-80
2022/03/11 11:28:58;;;;;;;14.18;6.68;;;;;;;;;;4980927;28;20038;-81
2022/03/11 11:31:24;;;;;;;10.98;6.30;;;;;;;;;;4995492;28;20026;-81
2022/03/11 11:33:50;;;;;;;12.88;7.53;;;;;;;;;;4979670;28;20106;-81
2022/03/11 11:36:35;;;;;;;9.18;5.53;;;;;;;;;;4979142;28;20143;-81
2022/03/11 11:39:05;;;;;;;14.68;6.40;;;;;;;;;;4978871;28;20030;-81
2022/03/11 11:41:32;;;;;;;11.75;6.35;;;;;;;;;;4980882;28;20045;-80
2022/03/11 11:44:02;;;;;;;11.77;5.97;;;;;;;;;;5001667;28;20115;-81
2022/03/11 11:46:29;;;;;;;15.00;6.43;;;;;;;;;;4982909;28;20031;-80
2022/03/11 11:48:57;;;;;;;12.13;6.70;;;;;;;;;;4992308;28;20101;-81
2022/03/11 11:51:42;;;;;;;8.90;5.63;;;;;;;;;;4979200;28;20031;-80
2022/03/11 11:54:08;;;;;;;14.52;5.78;;;;;;;;;;4975772;28;20027;-81
2022/03/11 11:56:39;;;;;;;10.20;6.75;;;;;;;;;;5003450;28;20026;-81
2022/03/11 11:59:32;;;;;;;14.40;7.47;;;;;;;;;;4978611;28;20034;-81
2022/03/11 12:02:01;;;;;;;11.40;7.20;;;;;;;;;;4975430;28;20030;-81
2022/03/11 12:04:27;;;;;;;11.48;6.55;;;;;;;;;;4978282;28;20555;-81
2022/03/11 12:06:56;;;;;;;14.40;6.18;;;;;;;;;;4978545;28;20030;-81
2022/03/11 12:09:54;;;;;;;11.55;6.53;;;;;;;;;;4977026;28;20641;-81
2022/03/11 12:12:25;;;;;;;12.27;6.80;;;;;;;;;;4982836;28;20041;-80
2022/03/11 12:14:57;;;;;;;11.23;6.65;;;;;;;;;;4982573;28;20115;-81
2022/03/11 12:18:01;;;;;;;12.85;6.57;;;;;;;;;;4979777;28;20165;-81
2022/03/11 12:20:34;;;;;;;10.90;6.55;;;;;;;;;;4990603;28;20161;-81
2022/03/11 12:23:11;;;;;;;12.32;6.32;;;;;;;;;;4994538;28;20501;-81
2022/03/11 12:25:39;;;;;;;10.20;5.95;;;;;;;;;;4981814;28;20042;-80
2022/03/11 12:28:10;;;;;;;11.57;6.13;;;;;;;;;;4975509;28;20025;-82
2022/03/11 12:31:02;;;;;;;12.77;6.63;;;;;;;;;;4977711;28;20037;-79
2022/03/11 12:33:38;;;;;;;;;;;;;;;;;;4978844;28;20042;-80
2022/03/11 12:36:10;;;;;;;15.57;6.68;;;;;;;;;;4977245;28;19965;-80
2022/03/11 12:38:39;;;;;;;13.48;6.45;;;;;;;;;;4978191;28;20737;-80
2022/03/11 12:41:32;;;;;;;13.40;6.22;;;;;;;;;;4975880;28;20094;-80
2022/03/11 12:43:58;;;;;;;;;;;;;;;;;;4985077;28;20033;-79
2022/03/11 12:46:24;;;;;;;11.98;6.57;;;;;;;;;;4978091;28;19961;-81
2022/03/11 12:48:49;;;;;;;10.82;6.57;;;;;;;;;;4979027;28;20061;-81
2022/03/11 12:51:21;;;;;;;11.98;6.38;;;;;;;;;;4983037;28;20031;-80
2022/03/11 12:53:49;;;;;;;15.18;6.70;;;;;;;;;;4982239;28;20507;-82
2022/03/11 12:56:15;;;;;;;12.05;6.60;;;;;;;;;;4985641;28;20026;-80
2022/03/11 12:58:40;;;;;;;16.02;7.18;;;;;;;;;;4983362;28;20030;-81
2022/03/11 13:01:10;;;;;;;12.15;6.65;;;;;;;;;;4974377;28;20034;-79
2022/03/11 13:03:40;;;;;;;11.30;6.28;;;;;;;;;;4990461;28;20497;-79
2022/03/11 13:06:08;;;;;;;14.85;6.30;;;;;;;;;;4973972;28;20101;-79
2022/03/11 13:08:33;;;;;;;12.35;6.57;;;;;;;;;;4974707;28;20107;-79
2022/03/11 13:11:01;;;;;;;12.40;6.57;;;;;;;;;;4988351;28;20696;-78
2022/03/11 13:13:27;;;;;;;11.50;6.97;;;;;;;;;;4974057;28;20122;-82
2022/03/11 13:15:55;;;;;;;11.43;6.43;;;;;;;;;;4974917;28;20050;-80
2022/03/11 13:18:29;;;;;;;12.93;7.10;;;;;;;;;;4975253;28;20116;-79
2022/03/11 13:21:06;;;;;;;11.48;6.18;;;;;;;;;;4975401;28;20098;-80
2022/03/11 13:23:39;;;;;;;10.60;6.85;;;;;;;;;;4997385;28;20054;-81
2022/03/11 13:26:08;;;;;;;13.85;6.93;;;;;;;;;;4992144;28;20370;-80
2022/03/11 13:28:45;;;;;;;13.05;6.28;;;;;;;;;;4994775;28;20036;-83
2022/03/11 13:31:13;;;;;;;11.63;5.70;;;;;;;;;;4992463;28;20065;-79
2022/03/11 13:33:40;;;;;;;15.90;6.35;;;;;;;;;;4974846;28;20053;-80
2022/03/11 13:36:08;;;;;;;14.77;6.95;;;;;;;;;;4992716;28;20041;-80
2022/03/11 13:38:58;;;;;;;13.77;6.70;;;;;;;;;;4995747;28;20026;-79
2022/03/11 13:41:28;;;;;;;12.55;6.32;;;;;;;;;;4974913;28;20030;-80
2022/03/11 13:44:08;;;;;;;10.77;6.93;;;;;;;;;;4980580;28;20027;-79
2022/03/11 13:46:39;;;;;;;16.50;7.07;;;;;;;;;;4994596;28;20105;-80
2022/03/11 13:49:13;;;;;;;18.45;7.07;;;;;;;;;;4995854;28;20085;-80
2022/03/11 13:51:51;;;;;;;12.85;6.63;;;;;;;;;;4976614;28;20025;-85
2022/03/11 13:54:34;;;;;;;12.98;7.22;;;;;;;;;;4976947;28;20165;-81
2022/03/11 13:57:19;;;;;;;21.45;6.82;;;;;;;;;;4976535;28;20030;-80
2022/03/11 13:59:46;;;;;;;10.30;6.63;;;;;;;;;;4974911;28;20038;-80
2022/03/11 14:02:23;;;;;;;10.60;6.55;;;;;;;;;;4976004;28;20019;-80
2022/03/11 14:05:08;;;;;;;11.85;6.75;;;;;;;;;;4983004;28;20090;-80
2022/03/11 14:07:34;;;;;;;13.38;6.97;;;;;;;;;;4986301;28;20022;-80
2022/03/11 14:09:59;;;;;;;10.52;6.07;;;;;;;;;;4995967;28;20029;-80
2022/03/11 14:12:26;;;;;;;12.20;7.22;;;;;;;;;;5010514;28;20046;-80
2022/03/11 14:15:12;;;;;;;14.75;6.93;;;;;;;;;;4987813;28;20573;-85
2022/03/11 14:17:38;;;;;;;14.77;7.22;;;;;;;;;;4982384;28;20043;-80
2022/03/11 14:20:06;;;;;;;10.63;6.40;;;;;;;;;;4985110;28;20027;-81
2022/03/11 14:22:32;;;;;;;15.38;8.27;;;;;;;;;;4994375;28;20026;-80
2022/03/11 14:24:58;;;;;;;18.23;7.53;;;;;;;;;;4984749;28;20081;-82
2022/03/11 14:27:23;;;;;;;12.63;7.32;;;;;;;;;;4984182;28;20082;-81
2022/03/11 14:29:49;;;;;;;11.93;6.88;;;;;;;;;;4984263;28;20030;-80
2022/03/11 14:32:14;;;;;;;14.15;7.45;;;;;;;;;;4983653;28;20035;-81
2022/03/11 14:34:40;;;;;;;12.20;5.70;;;;;;;;;;4992166;28;20208;-81
2022/03/11 14:37:07;;;;;;;8.57;5.80;;;;;;;;;;4998557;28;20031;-79
2022/03/11 14:39:36;;;;;;;11.75;6.82;;;;;;;;;;5000152;28;20086;-80
2022/03/11 14:42:03;;;;;;;11.25;7.20;;;;;;;;;;4980812;28;20106;-79
2022/03/11 14:44:30;;;;;;;12.60;7.22;;;;;;;;;;4985115;28;20048;-79